This is the latest recevied weather packets stored in our database for station/object CT1ETE-13. If no packets are shown the sender has not sent any weather packets the latest 1 day(s).
| Time | Temp. | Humidity | Pressure | Rain* | Wind** | Luminosity | Snow |
|---|---|---|---|---|---|---|---|
| 1836274496 | 17.22° C | 64% | 1019.2 hPa | 0 mm | 0.45 m/s, 198° | - | - |
| 1778027827 | 10.56° C | 86% | 1015.8 hPa | 0 mm | 0 m/s | - | - |
| 1778026927 | 10.56° C | 86% | 1015.9 hPa | 0 mm | 0.45 m/s, 240° | - | - |
| 1778026026 | 10.56° C | 86% | 1016 hPa | 0 mm | 0 m/s | - | - |
| 1778025125 | 10.56° C | 86% | 1016.1 hPa | 0 mm | 1.79 m/s, 240° | - | - |
| 1778024222 | 10.56° C | 86% | 1016.2 hPa | 0 mm | 1.34 m/s, 251° | - | - |
| 1778023322 | 10.56° C | 86% | 1016.2 hPa | 0 mm | 0.45 m/s, 238° | - | - |
| 1778022421 | 10.56° C | 86% | 1016.1 hPa | 0 mm | 0.89 m/s, 238° | - | - |
| 1778021520 | 10.56° C | 86% | 1016.1 hPa | 0 mm | 1.79 m/s, 242° | - | - |
| 1778020621 | 11.11° C | 85% | 1016.3 hPa | 0 mm | 0 m/s | - | - |
| 1778019721 | 11.11° C | 85% | 1016.3 hPa | 0 mm | 1.79 m/s, 248° | - | - |
| 1778018819 | 11.11° C | 84% | 1016.2 hPa | 0 mm | 1.34 m/s, 271° | - | - |
| 1778017918 | 11.67° C | 84% | 1016.3 hPa | 0 mm | 2.68 m/s, 236° | - | - |
| 1778017079 | 11.67° C | 84% | 1016.3 hPa | 0 mm | 2.68 m/s, 232° | - | - |
| 1778016119 | 11.67° C | 83% | 1016.3 hPa | 0 mm | 2.24 m/s, 254° | - | - |
| 1778015218 | 11.67° C | 82% | 1016.3 hPa | 0 mm | 3.13 m/s, 246° | - | - |
| 1778014318 | 11.67° C | 83% | 1016.3 hPa | 0 mm | 2.24 m/s, 235° | - | - |
| 1778013478 | 12.22° C | 82% | 1016.2 hPa | 0 mm | 2.24 m/s, 242° | - | - |
| 1778012518 | 12.22° C | 82% | 1016.1 hPa | 0 mm | 2.24 m/s, 248° | - | - |
| 1778011618 | 12.22° C | 81% | 1015.9 hPa | 0 mm | 2.24 m/s, 222° | - | - |
| 1778010720 | 12.78° C | 80% | 1015.7 hPa | 0 mm | 1.79 m/s, 267° | - | - |
| 1778009816 | 12.78° C | 79% | 1015.6 hPa | 0 mm | 1.79 m/s, 242° | - | - |
| 1778008976 | 13.33° C | 78% | 1015.5 hPa | 0 mm | 2.24 m/s, 272° | - | - |
| 1778008016 | 13.33° C | 77% | 1015.4 hPa | 0 mm | 2.24 m/s, 254° | - | - |
| 1778007116 | 13.89° C | 75% | 1015.4 hPa | 0 mm | 2.24 m/s, 279° | - | - |
* Rain latest hour (hover to see other rain measurements)
** Current wind speed in m/s (hover to see current wind gust speed)